sensor_id;sensor_type;location;lat;lon;timestamp;pressure;altitude;pressure_sealevel;temperature;humidity
55077;BME280;40971;44.702;11.030;2023-06-01T00:09:18;101543.31;;;16.02;81.66
55077;BME280;40971;44.702;11.030;2023-06-01T00:19:21;101527.22;;;16.03;82.79
55077;BME280;40971;44.702;11.030;2023-06-01T00:29:23;101545.94;;;16.39;83.19
55077;BME280;40971;44.702;11.030;2023-06-01T00:39:25;101545.41;;;16.29;81.80
55077;BME280;40971;44.702;11.030;2023-06-01T00:49:27;101516.75;;;15.87;82.94
55077;BME280;40971;44.702;11.030;2023-06-01T00:59:34;101524.28;;;15.76;83.98
55077;BME280;40971;44.702;11.030;2023-06-01T01:10:02;101529.75;;;15.51;86.58
55077;BME280;40971;44.702;11.030;2023-06-01T01:20:19;101523.56;;;15.82;86.28
55077;BME280;40971;44.702;11.030;2023-06-01T01:30:26;101535.88;;;15.74;85.32
55077;BME280;40971;44.702;11.030;2023-06-01T01:40:30;101515.84;;;15.72;85.43
55077;BME280;40971;44.702;11.030;2023-06-01T01:50:38;101514.25;;;15.86;85.33
55077;BME280;40971;44.702;11.030;2023-06-01T02:00:44;101514.91;;;15.88;84.51
55077;BME280;40971;44.702;11.030;2023-06-01T02:10:47;101515.63;;;15.82;83.10
55077;BME280;40971;44.702;11.030;2023-06-01T02:20:52;101515.09;;;15.63;84.38
55077;BME280;40971;44.702;11.030;2023-06-01T02:30:54;101509.75;;;15.71;84.06
55077;BME280;40971;44.702;11.030;2023-06-01T02:40:57;101512.56;;;15.39;85.06
55077;BME280;40971;44.702;11.030;2023-06-01T02:50:59;101521.16;;;15.49;85.49
55077;BME280;40971;44.702;11.030;2023-06-01T03:01:02;101511.97;;;15.29;85.57
55077;BME280;40971;44.702;11.030;2023-06-01T03:11:04;101509.09;;;15.08;85.46
55077;BME280;40971;44.702;11.030;2023-06-01T03:21:06;101500.09;;;15.17;86.95
55077;BME280;40971;44.702;11.030;2023-06-01T03:31:11;101517.28;;;15.29;86.12
55077;BME280;40971;44.702;11.030;2023-06-01T03:41:15;101508.53;;;14.90;86.04
55077;BME280;40971;44.702;11.030;2023-06-01T03:51:17;101509.78;;;15.02;86.89
55077;BME280;40971;44.702;11.030;2023-06-01T04:01:19;101506.72;;;15.21;86.68
55077;BME280;40971;44.702;11.030;2023-06-01T04:11:24;101515.19;;;15.47;85.33
55077;BME280;40971;44.702;11.030;2023-06-01T04:21:28;101516.63;;;15.58;84.49
55077;BME280;40971;44.702;11.030;2023-06-01T04:31:30;101524.56;;;15.81;84.24
55077;BME280;40971;44.702;11.030;2023-06-01T04:41:35;101525.25;;;15.83;85.00
55077;BME280;40971;44.702;11.030;2023-06-01T04:51:36;101516.25;;;15.84;85.66
55077;BME280;40971;44.702;11.030;2023-06-01T05:01:37;101518.63;;;15.79;86.20
55077;BME280;40971;44.702;11.030;2023-06-01T05:11:41;101522.38;;;16.07;86.29
55077;BME280;40971;44.702;11.030;2023-06-01T05:21:44;101517.91;;;16.59;83.48
55077;BME280;40971;44.702;11.030;2023-06-01T05:31:49;101515.06;;;16.90;82.44
55077;BME280;40971;44.702;11.030;2023-06-01T05:41:53;101520.03;;;17.29;80.70
55077;BME280;40971;44.702;11.030;2023-06-01T05:51:55;101516.81;;;17.69;78.62
55077;BME280;40971;44.702;11.030;2023-06-01T06:01:56;101525.69;;;17.97;78.19
55077;BME280;40971;44.702;11.030;2023-06-01T06:11:58;101525.34;;;18.35;77.48
55077;BME280;40971;44.702;11.030;2023-06-01T06:22:02;101534.41;;;18.68;76.25
55077;BME280;40971;44.702;11.030;2023-06-01T06:32:04;101525.81;;;19.13;75.44
55077;BME280;40971;44.702;11.030;2023-06-01T06:42:07;101526.22;;;19.71;72.24
55077;BME280;40971;44.702;11.030;2023-06-01T06:52:08;101530.94;;;20.74;69.12
55077;BME280;40971;44.702;11.030;2023-06-01T07:02:09;101535.91;;;21.97;65.41
55077;BME280;40971;44.702;11.030;2023-06-01T07:12:11;101527.03;;;23.00;62.47
55077;BME280;40971;44.702;11.030;2023-06-01T07:22:15;101530.25;;;23.57;56.73
55077;BME280;40971;44.702;11.030;2023-06-01T07:32:19;101531.56;;;24.19;54.06
55077;BME280;40971;44.702;11.030;2023-06-01T07:42:22;101532.94;;;24.91;50.92
55077;BME280;40971;44.702;11.030;2023-06-01T07:52:24;101535.00;;;26.02;50.13
55077;BME280;40971;44.702;11.030;2023-06-01T08:02:26;101534.59;;;26.60;46.56
55077;BME280;40971;44.702;11.030;2023-06-01T08:12:28;101529.41;;;26.97;43.48
55077;BME280;40971;44.702;11.030;2023-06-01T08:22:30;101516.91;;;25.97;44.92
55077;BME280;40971;44.702;11.030;2023-06-01T08:32:32;101506.63;;;27.09;44.07
55077;BME280;40971;44.702;11.030;2023-06-01T08:52:43;101500.00;;;27.44;42.54
55077;BME280;40971;44.702;11.030;2023-06-01T09:02:48;101492.03;;;28.74;39.14
55077;BME280;40971;44.702;11.030;2023-06-01T09:12:53;101494.56;;;28.02;40.44
55077;BME280;40971;44.702;11.030;2023-06-01T09:22:56;101486.66;;;27.64;42.67
55077;BME280;40971;44.702;11.030;2023-06-01T09:33:16;101479.63;;;27.09;41.85
55077;BME280;40971;44.702;11.030;2023-06-01T09:43:20;101469.19;;;29.22;38.59
55077;BME280;40971;44.702;11.030;2023-06-01T09:53:24;101466.75;;;27.75;40.88
55077;BME280;40971;44.702;11.030;2023-06-01T10:03:28;101460.00;;;30.09;36.63
55077;BME280;40971;44.702;11.030;2023-06-01T10:13:31;101449.19;;;29.89;37.20
55077;BME280;40971;44.702;11.030;2023-06-01T10:23:34;101438.41;;;28.14;38.59
55077;BME280;40971;44.702;11.030;2023-06-01T10:33:51;101436.97;;;28.54;39.66
55077;BME280;40971;44.702;11.030;2023-06-01T10:43:54;101425.78;;;28.97;37.14
55077;BME280;40971;44.702;11.030;2023-06-01T10:54:31;101426.34;;;29.09;38.53
55077;BME280;40971;44.702;11.030;2023-06-01T11:04:35;101417.28;;;27.38;39.66
55077;BME280;40971;44.702;11.030;2023-06-01T11:15:08;101415.91;;;27.67;40.58
55077;BME280;40971;44.702;11.030;2023-06-01T11:25:10;101407.91;;;28.86;37.15
55077;BME280;40971;44.702;11.030;2023-06-01T11:35:17;101400.19;;;27.64;38.99
55077;BME280;40971;44.702;11.030;2023-06-01T11:45:20;101389.38;;;27.64;37.73
55077;BME280;40971;44.702;11.030;2023-06-01T11:55:23;101371.59;;;29.93;35.07
55077;BME280;40971;44.702;11.030;2023-06-01T12:05:26;101371.97;;;30.89;33.29
55077;BME280;40971;44.702;11.030;2023-06-01T12:15:29;101348.16;;;31.20;32.94
55077;BME280;40971;44.702;11.030;2023-06-01T12:25:33;101336.19;;;31.79;33.88
55077;BME280;40971;44.702;11.030;2023-06-01T12:35:49;101314.75;;;28.87;36.19
55077;BME280;40971;44.702;11.030;2023-06-01T12:45:53;101290.31;;;30.81;35.39
55077;BME280;40971;44.702;11.030;2023-06-01T12:55:54;101286.72;;;31.19;34.71
55077;BME280;40971;44.702;11.030;2023-06-01T13:05:57;101265.53;;;32.53;31.39
55077;BME280;40971;44.702;11.030;2023-06-01T13:16:00;101240.91;;;30.79;33.49
55077;BME280;40971;44.702;11.030;2023-06-01T13:26:01;101234.97;;;30.72;33.54
55077;BME280;40971;44.702;11.030;2023-06-01T13:36:03;101221.97;;;30.74;33.36
55077;BME280;40971;44.702;11.030;2023-06-01T13:46:06;101213.66;;;30.16;33.16
55077;BME280;40971;44.702;11.030;2023-06-01T13:56:11;101201.13;;;29.81;33.60
55077;BME280;40971;44.702;11.030;2023-06-01T14:06:12;101173.50;;;29.69;34.23
55077;BME280;40971;44.702;11.030;2023-06-01T14:16:14;101167.47;;;29.03;35.75
55077;BME280;40971;44.702;11.030;2023-06-01T14:26:15;101152.78;;;30.95;31.99
55077;BME280;40971;44.702;11.030;2023-06-01T14:36:17;101141.19;;;29.83;35.85
55077;BME280;40971;44.702;11.030;2023-06-01T14:46:21;101135.97;;;29.37;35.68
55077;BME280;40971;44.702;11.030;2023-06-01T14:56:22;101130.06;;;29.10;35.27
55077;BME280;40971;44.702;11.030;2023-06-01T15:06:24;101132.88;;;28.80;34.78
55077;BME280;40971;44.702;11.030;2023-06-01T15:16:29;101130.09;;;30.18;33.27
55077;BME280;40971;44.702;11.030;2023-06-01T15:26:31;101123.63;;;31.05;32.88
55077;BME280;40971;44.702;11.030;2023-06-01T15:36:35;101117.47;;;31.42;30.70
55077;BME280;40971;44.702;11.030;2023-06-01T15:46:37;101103.94;;;30.37;32.89
55077;BME280;40971;44.702;11.030;2023-06-01T15:56:39;101091.41;;;31.18;31.04
55077;BME280;40971;44.702;11.030;2023-06-01T16:06:40;101094.00;;;30.51;33.58
55077;BME280;40971;44.702;11.030;2023-06-01T16:16:43;101087.94;;;30.65;32.51
55077;BME280;40971;44.702;11.030;2023-06-01T16:26:45;101096.06;;;28.79;35.12
55077;BME280;40971;44.702;11.030;2023-06-01T16:36:46;101091.66;;;28.98;35.69
55077;BME280;40971;44.702;11.030;2023-06-01T16:46:48;101086.19;;;29.23;35.23
55077;BME280;40971;44.702;11.030;2023-06-01T16:56:50;101090.78;;;29.28;36.85
55077;BME280;40971;44.702;11.030;2023-06-01T17:06:52;101085.19;;;28.94;35.34
55077;BME280;40971;44.702;11.030;2023-06-01T17:16:53;101080.78;;;29.13;34.85
55077;BME280;40971;44.702;11.030;2023-06-01T17:26:55;101084.91;;;28.96;36.43
55077;BME280;40971;44.702;11.030;2023-06-01T17:36:57;101079.38;;;29.21;41.65
55077;BME280;40971;44.702;11.030;2023-06-01T17:47:02;101077.63;;;28.91;44.87
55077;BME280;40971;44.702;11.030;2023-06-01T17:57:03;101075.50;;;28.58;46.99
55077;BME280;40971;44.702;11.030;2023-06-01T18:07:06;101072.31;;;28.15;46.00
55077;BME280;40971;44.702;11.030;2023-06-01T18:17:07;101070.09;;;27.77;46.92
55077;BME280;40971;44.702;11.030;2023-06-01T18:27:09;101064.94;;;26.93;51.26
55077;BME280;40971;44.702;11.030;2023-06-01T18:37:13;101065.69;;;26.47;48.79
55077;BME280;40971;44.702;11.030;2023-06-01T18:47:15;101068.75;;;25.65;51.21
55077;BME280;40971;44.702;11.030;2023-06-01T18:57:17;101063.88;;;24.97;58.20
55077;BME280;40971;44.702;11.030;2023-06-01T19:17:31;101086.41;;;23.51;56.33
55077;BME280;40971;44.702;11.030;2023-06-01T19:27:34;101084.38;;;23.18;63.97
55077;BME280;40971;44.702;11.030;2023-06-01T19:37:36;101098.66;;;22.84;65.64
55077;BME280;40971;44.702;11.030;2023-06-01T19:47:47;101100.56;;;22.19;66.79
55077;BME280;40971;44.702;11.030;2023-06-01T19:57:49;101102.16;;;22.09;63.12
55077;BME280;40971;44.702;11.030;2023-06-01T20:08:07;101095.13;;;21.66;62.51
55077;BME280;40971;44.702;11.030;2023-06-01T20:18:10;101086.16;;;21.61;62.94
55077;BME280;40971;44.702;11.030;2023-06-01T20:28:14;101086.41;;;21.71;63.95
55077;BME280;40971;44.702;11.030;2023-06-01T20:38:16;101083.88;;;21.76;61.63
55077;BME280;40971;44.702;11.030;2023-06-01T20:48:39;101093.50;;;21.65;61.46
55077;BME280;40971;44.702;11.030;2023-06-01T20:58:42;101079.34;;;21.28;61.45
55077;BME280;40971;44.702;11.030;2023-06-01T21:08:45;101091.94;;;20.85;62.82
55077;BME280;40971;44.702;11.030;2023-06-01T21:18:47;101089.16;;;21.16;62.35
55077;BME280;40971;44.702;11.030;2023-06-01T21:28:49;101090.34;;;20.03;66.39
55077;BME280;40971;44.702;11.030;2023-06-01T21:38:52;101083.94;;;20.36;66.88
55077;BME280;40971;44.702;11.030;2023-06-01T21:48:54;101075.47;;;20.45;64.86
55077;BME280;40971;44.702;11.030;2023-06-01T21:58:56;101086.09;;;20.52;64.02
55077;BME280;40971;44.702;11.030;2023-06-01T22:08:59;101086.03;;;20.33;63.78
55077;BME280;40971;44.702;11.030;2023-06-01T22:19:03;101104.25;;;19.74;66.27
55077;BME280;40971;44.702;11.030;2023-06-01T22:29:04;101106.63;;;19.38;67.96
55077;BME280;40971;44.702;11.030;2023-06-01T22:39:06;101114.50;;;19.19;70.42
55077;BME280;40971;44.702;11.030;2023-06-01T22:49:08;101108.22;;;19.01;71.60
55077;BME280;40971;44.702;11.030;2023-06-01T22:59:11;101113.38;;;18.70;75.59
55077;BME280;40971;44.702;11.030;2023-06-01T23:09:16;101106.19;;;18.44;75.99
55077;BME280;40971;44.702;11.030;2023-06-01T23:19:17;101113.84;;;17.67;78.97
55077;BME280;40971;44.702;11.030;2023-06-01T23:29:20;101125.41;;;18.13;76.35
55077;BME280;40971;44.702;11.030;2023-06-01T23:39:24;101128.22;;;17.98;76.82
55077;BME280;40971;44.702;11.030;2023-06-01T23:49:29;101121.63;;;17.81;75.93
55077;BME280;40971;44.702;11.030;2023-06-01T23:59:32;101116.97;;;17.42;76.83
